Mililani, Hawaii
Current Conditions -  °F | °C
As of 5:58 AM on Thursday 30 Oct 2014 (Local Time) from PHHI Reporting Station
Few Clouds Few Clouds  
Wind Chill: 69°   Ceiling: Unl
Heat Index: 69°   Visibility: 10mi
Dew Point: 65°   Wind: 3mph
Humidity: 88%   Direction: 310°NW
Pressure: 30.07"   Gusts: NA
Location:  21.45°N, 158.02°W
Report Text: PHHI 301558Z AUTO 31003KT 10SM FEW037 21/19 A3007 RMK AO2 SLP173 T02060186 $
Loading
Personal Weather Stations






























Interactive Weather Map
Tropical Storm Tracking
New forecast layout! Learn more

10-Day Weather Forecast

Advertisements
Track Severe Weather on mobile